sensor_id;sensor_type;location;lat;lon;timestamp;P1;durP1;ratioP1;P2;durP2;ratioP2
72929;SDS011;61073;54.260;20.816;2023-07-13T00:05:37;13.57;;;9.80;;
72929;SDS011;61073;54.260;20.816;2023-07-13T00:08:05;13.60;;;9.85;;
72929;SDS011;61073;54.260;20.816;2023-07-13T00:10:38;16.05;;;9.48;;
72929;SDS011;61073;54.260;20.816;2023-07-13T00:13:08;14.57;;;9.05;;
72929;SDS011;61073;54.260;20.816;2023-07-13T00:15:36;15.38;;;8.80;;
72929;SDS011;61073;54.260;20.816;2023-07-13T00:18:04;13.85;;;9.50;;
72929;SDS011;61073;54.260;20.816;2023-07-13T00:20:32;11.88;;;8.73;;
72929;SDS011;61073;54.260;20.816;2023-07-13T00:23:02;16.48;;;8.85;;
72929;SDS011;61073;54.260;20.816;2023-07-13T00:25:32;15.30;;;8.20;;
72929;SDS011;61073;54.260;20.816;2023-07-13T00:28:01;13.90;;;8.35;;
72929;SDS011;61073;54.260;20.816;2023-07-13T00:30:29;12.57;;;8.60;;
72929;SDS011;61073;54.260;20.816;2023-07-13T00:32:58;13.98;;;7.93;;
72929;SDS011;61073;54.260;20.816;2023-07-13T00:35:33;11.05;;;8.07;;
72929;SDS011;61073;54.260;20.816;2023-07-13T00:38:01;11.80;;;9.55;;
72929;SDS011;61073;54.260;20.816;2023-07-13T00:40:31;15.52;;;8.02;;
72929;SDS011;61073;54.260;20.816;2023-07-13T00:42:59;9.70;;;7.40;;
72929;SDS011;61073;54.260;20.816;2023-07-13T00:47:58;9.32;;;7.22;;
72929;SDS011;61073;54.260;20.816;2023-07-13T00:50:32;12.32;;;8.25;;
72929;SDS011;61073;54.260;20.816;2023-07-13T00:53:08;9.48;;;7.32;;
72929;SDS011;61073;54.260;20.816;2023-07-13T00:55:36;10.98;;;7.22;;
72929;SDS011;61073;54.260;20.816;2023-07-13T00:58:04;10.98;;;7.25;;
72929;SDS011;61073;54.260;20.816;2023-07-13T01:00:36;13.65;;;7.70;;
72929;SDS011;61073;54.260;20.816;2023-07-13T01:03:05;14.77;;;7.05;;
72929;SDS011;61073;54.260;20.816;2023-07-13T01:05:33;13.73;;;7.65;;
72929;SDS011;61073;54.260;20.816;2023-07-13T01:08:02;9.98;;;7.57;;
72929;SDS011;61073;54.260;20.816;2023-07-13T01:10:34;12.40;;;7.75;;
72929;SDS011;61073;54.260;20.816;2023-07-13T01:13:06;13.27;;;9.63;;
72929;SDS011;61073;54.260;20.816;2023-07-13T01:18:03;13.38;;;8.40;;
72929;SDS011;61073;54.260;20.816;2023-07-13T01:20:31;13.43;;;8.43;;
72929;SDS011;61073;54.260;20.816;2023-07-13T01:23:04;14.63;;;8.43;;
72929;SDS011;61073;54.260;20.816;2023-07-13T01:25:34;14.63;;;8.40;;
72929;SDS011;61073;54.260;20.816;2023-07-13T01:28:03;16.15;;;8.52;;
72929;SDS011;61073;54.260;20.816;2023-07-13T01:30:31;13.98;;;8.27;;
72929;SDS011;61073;54.260;20.816;2023-07-13T01:33:02;11.70;;;7.53;;
72929;SDS011;61073;54.260;20.816;2023-07-13T01:35:31;11.75;;;7.15;;
72929;SDS011;61073;54.260;20.816;2023-07-13T01:40:30;12.07;;;7.78;;
72929;SDS011;61073;54.260;20.816;2023-07-13T01:43:01;11.23;;;6.47;;
72929;SDS011;61073;54.260;20.816;2023-07-13T01:45:29;16.00;;;7.10;;
72929;SDS011;61073;54.260;20.816;2023-07-13T01:47:58;13.35;;;8.50;;
72929;SDS011;61073;54.260;20.816;2023-07-13T01:50:26;10.38;;;7.18;;
72929;SDS011;61073;54.260;20.816;2023-07-13T01:52:56;12.77;;;6.93;;
72929;SDS011;61073;54.260;20.816;2023-07-13T01:55:24;10.40;;;6.07;;
72929;SDS011;61073;54.260;20.816;2023-07-13T01:57:52;10.50;;;6.55;;
72929;SDS011;61073;54.260;20.816;2023-07-13T02:00:20;12.20;;;6.40;;
72929;SDS011;61073;54.260;20.816;2023-07-13T02:02:48;9.43;;;6.25;;
72929;SDS011;61073;54.260;20.816;2023-07-13T02:05:17;11.30;;;6.32;;
72929;SDS011;61073;54.260;20.816;2023-07-13T02:07:45;12.45;;;6.18;;
72929;SDS011;61073;54.260;20.816;2023-07-13T02:10:13;14.13;;;6.28;;
72929;SDS011;61073;54.260;20.816;2023-07-13T02:12:41;12.63;;;5.95;;
72929;SDS011;61073;54.260;20.816;2023-07-13T02:15:10;14.30;;;5.82;;
72929;SDS011;61073;54.260;20.816;2023-07-13T02:17:38;9.02;;;6.00;;
72929;SDS011;61073;54.260;20.816;2023-07-13T02:20:06;11.20;;;6.43;;
72929;SDS011;61073;54.260;20.816;2023-07-13T02:22:37;9.27;;;5.80;;
72929;SDS011;61073;54.260;20.816;2023-07-13T02:25:06;12.90;;;6.95;;
72929;SDS011;61073;54.260;20.816;2023-07-13T02:27:34;12.43;;;6.28;;
72929;SDS011;61073;54.260;20.816;2023-07-13T02:32:31;9.15;;;5.60;;
72929;SDS011;61073;54.260;20.816;2023-07-13T02:35:01;13.68;;;6.63;;
72929;SDS011;61073;54.260;20.816;2023-07-13T02:37:30;11.55;;;6.20;;
72929;SDS011;61073;54.260;20.816;2023-07-13T02:39:58;8.23;;;5.22;;
72929;SDS011;61073;54.260;20.816;2023-07-13T02:42:26;9.65;;;5.53;;
72929;SDS011;61073;54.260;20.816;2023-07-13T02:44:54;12.63;;;5.30;;
72929;SDS011;61073;54.260;20.816;2023-07-13T02:47:22;10.68;;;5.63;;
72929;SDS011;61073;54.260;20.816;2023-07-13T02:49:54;6.80;;;5.20;;
72929;SDS011;61073;54.260;20.816;2023-07-13T02:52:22;9.23;;;5.03;;
72929;SDS011;61073;54.260;20.816;2023-07-13T02:54:50;10.52;;;4.60;;
72929;SDS011;61073;54.260;20.816;2023-07-13T02:57:19;11.48;;;4.57;;
72929;SDS011;61073;54.260;20.816;2023-07-13T02:59:47;10.60;;;4.80;;
72929;SDS011;61073;54.260;20.816;2023-07-13T03:04:44;10.43;;;4.72;;
72929;SDS011;61073;54.260;20.816;2023-07-13T03:07:14;7.57;;;4.22;;
72929;SDS011;61073;54.260;20.816;2023-07-13T03:09:42;9.10;;;4.55;;
72929;SDS011;61073;54.260;20.816;2023-07-13T03:12:11;9.43;;;5.22;;
72929;SDS011;61073;54.260;20.816;2023-07-13T03:14:39;15.68;;;5.25;;
72929;SDS011;61073;54.260;20.816;2023-07-13T03:17:08;10.07;;;4.72;;
72929;SDS011;61073;54.260;20.816;2023-07-13T03:22:05;11.65;;;5.05;;
72929;SDS011;61073;54.260;20.816;2023-07-13T03:24:34;8.35;;;4.93;;
72929;SDS011;61073;54.260;20.816;2023-07-13T03:27:06;6.97;;;4.75;;
72929;SDS011;61073;54.260;20.816;2023-07-13T03:29:40;11.20;;;4.25;;
72929;SDS011;61073;54.260;20.816;2023-07-13T03:32:09;11.32;;;5.15;;
72929;SDS011;61073;54.260;20.816;2023-07-13T03:34:38;13.77;;;8.05;;
72929;SDS011;61073;54.260;20.816;2023-07-13T03:37:09;17.33;;;8.88;;
72929;SDS011;61073;54.260;20.816;2023-07-13T03:39:40;12.75;;;5.43;;
72929;SDS011;61073;54.260;20.816;2023-07-13T03:42:09;10.27;;;4.80;;
72929;SDS011;61073;54.260;20.816;2023-07-13T03:44:42;13.20;;;5.60;;
72929;SDS011;61073;54.260;20.816;2023-07-13T03:47:17;8.40;;;4.22;;
72929;SDS011;61073;54.260;20.816;2023-07-13T03:49:48;9.43;;;4.68;;
72929;SDS011;61073;54.260;20.816;2023-07-13T03:52:19;6.95;;;5.07;;
72929;SDS011;61073;54.260;20.816;2023-07-13T03:54:50;11.85;;;4.32;;
72929;SDS011;61073;54.260;20.816;2023-07-13T03:57:18;9.40;;;4.40;;
72929;SDS011;61073;54.260;20.816;2023-07-13T03:59:46;8.13;;;4.70;;
72929;SDS011;61073;54.260;20.816;2023-07-13T04:02:15;9.40;;;4.20;;
72929;SDS011;61073;54.260;20.816;2023-07-13T04:07:13;6.72;;;4.10;;
72929;SDS011;61073;54.260;20.816;2023-07-13T04:09:42;5.72;;;3.92;;
72929;SDS011;61073;54.260;20.816;2023-07-13T04:12:10;8.52;;;3.90;;
72929;SDS011;61073;54.260;20.816;2023-07-13T04:14:41;7.63;;;4.28;;
72929;SDS011;61073;54.260;20.816;2023-07-13T04:17:12;8.73;;;4.75;;
72929;SDS011;61073;54.260;20.816;2023-07-13T04:19:40;11.40;;;4.30;;
72929;SDS011;61073;54.260;20.816;2023-07-13T04:22:08;17.20;;;5.32;;
72929;SDS011;61073;54.260;20.816;2023-07-13T04:24:37;9.52;;;4.65;;
72929;SDS011;61073;54.260;20.816;2023-07-13T04:27:08;8.63;;;4.55;;
72929;SDS011;61073;54.260;20.816;2023-07-13T04:29:36;13.35;;;3.78;;
72929;SDS011;61073;54.260;20.816;2023-07-13T04:32:04;10.98;;;5.63;;
72929;SDS011;61073;54.260;20.816;2023-07-13T04:34:35;8.98;;;3.60;;
72929;SDS011;61073;54.260;20.816;2023-07-13T04:37:05;8.18;;;4.03;;
72929;SDS011;61073;54.260;20.816;2023-07-13T04:39:34;11.85;;;4.13;;
72929;SDS011;61073;54.260;20.816;2023-07-13T04:44:30;9.05;;;3.83;;
72929;SDS011;61073;54.260;20.816;2023-07-13T04:46:59;8.23;;;4.25;;
72929;SDS011;61073;54.260;20.816;2023-07-13T04:49:32;11.88;;;4.38;;
72929;SDS011;61073;54.260;20.816;2023-07-13T04:52:01;7.55;;;4.60;;
72929;SDS011;61073;54.260;20.816;2023-07-13T04:56:57;11.88;;;3.80;;
72929;SDS011;61073;54.260;20.816;2023-07-13T04:59:26;6.68;;;3.42;;
72929;SDS011;61073;54.260;20.816;2023-07-13T05:01:55;10.27;;;3.67;;
72929;SDS011;61073;54.260;20.816;2023-07-13T05:04:25;6.47;;;3.47;;
72929;SDS011;61073;54.260;20.816;2023-07-13T05:06:53;6.80;;;3.30;;
72929;SDS011;61073;54.260;20.816;2023-07-13T05:09:22;3.90;;;2.75;;
72929;SDS011;61073;54.260;20.816;2023-07-13T05:11:50;5.90;;;3.60;;
72929;SDS011;61073;54.260;20.816;2023-07-13T05:14:22;5.85;;;3.35;;
72929;SDS011;61073;54.260;20.816;2023-07-13T05:16:53;10.48;;;3.40;;
72929;SDS011;61073;54.260;20.816;2023-07-13T05:21:49;9.48;;;2.83;;
72929;SDS011;61073;54.260;20.816;2023-07-13T05:26:50;7.18;;;3.63;;
72929;SDS011;61073;54.260;20.816;2023-07-13T05:29:19;10.65;;;3.60;;
72929;SDS011;61073;54.260;20.816;2023-07-13T05:31:47;8.75;;;3.65;;
72929;SDS011;61073;54.260;20.816;2023-07-13T05:34:16;7.18;;;3.63;;
72929;SDS011;61073;54.260;20.816;2023-07-13T05:36:45;5.90;;;3.58;;
72929;SDS011;61073;54.260;20.816;2023-07-13T05:39:13;11.23;;;2.85;;
72929;SDS011;61073;54.260;20.816;2023-07-13T05:41:42;5.72;;;2.90;;
72929;SDS011;61073;54.260;20.816;2023-07-13T05:46:41;8.60;;;3.45;;
72929;SDS011;61073;54.260;20.816;2023-07-13T05:49:10;5.85;;;2.92;;
72929;SDS011;61073;54.260;20.816;2023-07-13T05:51:38;4.72;;;3.00;;
72929;SDS011;61073;54.260;20.816;2023-07-13T05:54:07;5.45;;;2.92;;
72929;SDS011;61073;54.260;20.816;2023-07-13T05:56:36;7.38;;;2.92;;
72929;SDS011;61073;54.260;20.816;2023-07-13T05:59:04;4.47;;;2.47;;
72929;SDS011;61073;54.260;20.816;2023-07-13T06:01:33;9.45;;;2.85;;
72929;SDS011;61073;54.260;20.816;2023-07-13T06:04:01;7.90;;;2.97;;
72929;SDS011;61073;54.260;20.816;2023-07-13T06:06:30;3.95;;;2.60;;
72929;SDS011;61073;54.260;20.816;2023-07-13T06:08:58;5.57;;;2.72;;
72929;SDS011;61073;54.260;20.816;2023-07-13T06:11:26;5.55;;;2.70;;
72929;SDS011;61073;54.260;20.816;2023-07-13T06:13:57;3.88;;;2.70;;
72929;SDS011;61073;54.260;20.816;2023-07-13T06:16:25;6.40;;;2.70;;
72929;SDS011;61073;54.260;20.816;2023-07-13T06:18:53;7.10;;;2.13;;
72929;SDS011;61073;54.260;20.816;2023-07-13T06:21:24;7.03;;;2.72;;
72929;SDS011;61073;54.260;20.816;2023-07-13T06:23:53;6.72;;;3.10;;
72929;SDS011;61073;54.260;20.816;2023-07-13T06:26:21;5.47;;;2.88;;
72929;SDS011;61073;54.260;20.816;2023-07-13T06:28:52;6.30;;;2.53;;
72929;SDS011;61073;54.260;20.816;2023-07-13T06:31:20;8.43;;;2.97;;
72929;SDS011;61073;54.260;20.816;2023-07-13T06:33:49;6.18;;;2.95;;
72929;SDS011;61073;54.260;20.816;2023-07-13T06:36:20;5.35;;;3.00;;
72929;SDS011;61073;54.260;20.816;2023-07-13T06:38:49;6.55;;;2.75;;
72929;SDS011;61073;54.260;20.816;2023-07-13T06:44:06;7.47;;;2.40;;
72929;SDS011;61073;54.260;20.816;2023-07-13T06:46:34;5.15;;;2.65;;
72929;SDS011;61073;54.260;20.816;2023-07-13T06:49:03;6.72;;;3.03;;
72929;SDS011;61073;54.260;20.816;2023-07-13T06:51:31;6.07;;;2.65;;
